sensor_id;sensor_type;location;lat;lon;timestamp;temperature;humidity
63960;DHT22;50136;51.374;0.096;2022-09-09T00:07:36;15.70;99.90
63960;DHT22;50136;51.374;0.096;2022-09-09T00:17:45;15.70;99.90
63960;DHT22;50136;51.374;0.096;2022-09-09T00:27:50;15.60;99.90
63960;DHT22;50136;51.374;0.096;2022-09-09T00:37:56;15.60;99.90
63960;DHT22;50136;51.374;0.096;2022-09-09T00:48:03;15.50;99.90
63960;DHT22;50136;51.374;0.096;2022-09-09T00:58:09;15.50;99.90
63960;DHT22;50136;51.374;0.096;2022-09-09T01:08:26;15.40;99.90
63960;DHT22;50136;51.374;0.096;2022-09-09T01:18:35;15.30;99.90
63960;DHT22;50136;51.374;0.096;2022-09-09T01:28:40;15.30;99.90
63960;DHT22;50136;51.374;0.096;2022-09-09T01:38:44;15.30;99.90
63960;DHT22;50136;51.374;0.096;2022-09-09T01:48:47;15.30;99.90
63960;DHT22;50136;51.374;0.096;2022-09-09T01:59:03;15.40;99.90
63960;DHT22;50136;51.374;0.096;2022-09-09T02:09:12;15.40;99.90
63960;DHT22;50136;51.374;0.096;2022-09-09T02:19:16;15.50;99.90
63960;DHT22;50136;51.374;0.096;2022-09-09T02:29:24;15.50;99.90
63960;DHT22;50136;51.374;0.096;2022-09-09T02:39:27;15.50;99.90
63960;DHT22;50136;51.374;0.096;2022-09-09T02:49:37;15.50;99.90
63960;DHT22;50136;51.374;0.096;2022-09-09T02:59:43;15.50;99.90
63960;DHT22;50136;51.374;0.096;2022-09-09T03:09:47;15.50;99.90
63960;DHT22;50136;51.374;0.096;2022-09-09T03:19:49;15.50;99.90
63960;DHT22;50136;51.374;0.096;2022-09-09T03:29:52;15.50;99.90
63960;DHT22;50136;51.374;0.096;2022-09-09T03:39:54;15.50;99.90
63960;DHT22;50136;51.374;0.096;2022-09-09T03:49:57;15.50;99.90
63960;DHT22;50136;51.374;0.096;2022-09-09T03:59:59;15.50;99.90
63960;DHT22;50136;51.374;0.096;2022-09-09T04:10:03;15.50;99.90
63960;DHT22;50136;51.374;0.096;2022-09-09T04:20:05;15.50;99.90
63960;DHT22;50136;51.374;0.096;2022-09-09T04:30:10;15.50;99.90
63960;DHT22;50136;51.374;0.096;2022-09-09T04:40:12;15.50;99.90
63960;DHT22;50136;51.374;0.096;2022-09-09T04:50:16;15.50;99.90
63960;DHT22;50136;51.374;0.096;2022-09-09T05:00:18;15.40;99.90
63960;DHT22;50136;51.374;0.096;2022-09-09T05:10:21;15.40;99.90
63960;DHT22;50136;51.374;0.096;2022-09-09T05:20:23;15.40;99.90
63960;DHT22;50136;51.374;0.096;2022-09-09T05:30:26;15.40;99.90
63960;DHT22;50136;51.374;0.096;2022-09-09T05:40:28;15.40;99.90
63960;DHT22;50136;51.374;0.096;2022-09-09T05:50:32;15.30;99.90
63960;DHT22;50136;51.374;0.096;2022-09-09T06:00:34;15.40;99.90
63960;DHT22;50136;51.374;0.096;2022-09-09T06:10:37;15.40;99.90
63960;DHT22;50136;51.374;0.096;2022-09-09T06:20:39;15.50;99.90
63960;DHT22;50136;51.374;0.096;2022-09-09T06:30:43;15.50;99.90
63960;DHT22;50136;51.374;0.096;2022-09-09T06:40:51;15.50;99.90
63960;DHT22;50136;51.374;0.096;2022-09-09T06:51:02;15.60;99.90
63960;DHT22;50136;51.374;0.096;2022-09-09T07:01:05;15.70;99.90
63960;DHT22;50136;51.374;0.096;2022-09-09T07:11:09;15.90;99.90
63960;DHT22;50136;51.374;0.096;2022-09-09T07:21:14;16.00;99.90
63960;DHT22;50136;51.374;0.096;2022-09-09T07:31:19;16.20;99.90
63960;DHT22;50136;51.374;0.096;2022-09-09T07:41:24;16.40;99.90
63960;DHT22;50136;51.374;0.096;2022-09-09T07:51:29;16.50;99.90
63960;DHT22;50136;51.374;0.096;2022-09-09T08:01:32;16.70;99.90
63960;DHT22;50136;51.374;0.096;2022-09-09T08:11:38;16.40;99.90
63960;DHT22;50136;51.374;0.096;2022-09-09T08:21:41;16.40;99.90
63960;DHT22;50136;51.374;0.096;2022-09-09T08:31:46;16.30;99.90
63960;DHT22;50136;51.374;0.096;2022-09-09T08:42:12;16.70;99.90
63960;DHT22;50136;51.374;0.096;2022-09-09T08:52:19;17.10;99.90
63960;DHT22;50136;51.374;0.096;2022-09-09T09:02:26;17.50;99.90
63960;DHT22;50136;51.374;0.096;2022-09-09T09:12:37;17.60;99.90
63960;DHT22;50136;51.374;0.096;2022-09-09T09:22:46;17.10;99.90
63960;DHT22;50136;51.374;0.096;2022-09-09T09:32:54;16.90;99.90
63960;DHT22;50136;51.374;0.096;2022-09-09T09:42:57;16.80;99.90
63960;DHT22;50136;51.374;0.096;2022-09-09T09:53:03;17.00;99.90
63960;DHT22;50136;51.374;0.096;2022-09-09T10:03:25;17.70;99.90
63960;DHT22;50136;51.374;0.096;2022-09-09T10:13:37;18.30;99.90
63960;DHT22;50136;51.374;0.096;2022-09-09T10:23:56;18.00;99.90
63960;DHT22;50136;51.374;0.096;2022-09-09T10:34:18;17.80;99.90
63960;DHT22;50136;51.374;0.096;2022-09-09T10:44:47;18.20;99.90
63960;DHT22;50136;51.374;0.096;2022-09-09T10:54:57;18.30;99.90
63960;DHT22;50136;51.374;0.096;2022-09-09T11:05:04;18.90;99.90
63960;DHT22;50136;51.374;0.096;2022-09-09T11:15:16;18.80;99.90
63960;DHT22;50136;51.374;0.096;2022-09-09T11:25:23;18.70;99.90
63960;DHT22;50136;51.374;0.096;2022-09-09T11:35:37;18.80;99.90
63960;DHT22;50136;51.374;0.096;2022-09-09T11:45:41;18.70;99.90
63960;DHT22;50136;51.374;0.096;2022-09-09T11:55:45;18.30;99.90
63960;DHT22;50136;51.374;0.096;2022-09-09T12:05:47;18.20;99.90
63960;DHT22;50136;51.374;0.096;2022-09-09T12:15:54;18.40;99.90
63960;DHT22;50136;51.374;0.096;2022-09-09T12:26:01;18.90;99.90
63960;DHT22;50136;51.374;0.096;2022-09-09T12:36:06;18.70;99.90
63960;DHT22;50136;51.374;0.096;2022-09-09T12:46:21;18.80;99.90
63960;DHT22;50136;51.374;0.096;2022-09-09T12:56:28;19.50;99.90
63960;DHT22;50136;51.374;0.096;2022-09-09T13:06:32;19.90;99.90
63960;DHT22;50136;51.374;0.096;2022-09-09T13:16:36;19.70;99.90
63960;DHT22;50136;51.374;0.096;2022-09-09T13:26:43;19.70;99.90
63960;DHT22;50136;51.374;0.096;2022-09-09T13:36:48;20.10;99.90
63960;DHT22;50136;51.374;0.096;2022-09-09T13:47:01;20.10;99.90
63960;DHT22;50136;51.374;0.096;2022-09-09T13:57:17;20.20;99.90
63960;DHT22;50136;51.374;0.096;2022-09-09T14:07:19;20.60;99.90
63960;DHT22;50136;51.374;0.096;2022-09-09T14:17:22;20.30;99.90
63960;DHT22;50136;51.374;0.096;2022-09-09T14:27:24;20.70;99.90
63960;DHT22;50136;51.374;0.096;2022-09-09T14:37:28;21.10;99.90
63960;DHT22;50136;51.374;0.096;2022-09-09T14:47:33;20.70;99.90
63960;DHT22;50136;51.374;0.096;2022-09-09T14:57:37;20.40;99.90
63960;DHT22;50136;51.374;0.096;2022-09-09T15:07:39;20.40;99.90
63960;DHT22;50136;51.374;0.096;2022-09-09T15:17:42;19.90;99.90
63960;DHT22;50136;51.374;0.096;2022-09-09T15:27:44;19.60;99.90
63960;DHT22;50136;51.374;0.096;2022-09-09T15:37:47;19.40;99.90
63960;DHT22;50136;51.374;0.096;2022-09-09T15:47:49;19.30;99.90
63960;DHT22;50136;51.374;0.096;2022-09-09T15:57:53;19.20;99.90
63960;DHT22;50136;51.374;0.096;2022-09-09T16:07:55;19.40;99.90
63960;DHT22;50136;51.374;0.096;2022-09-09T16:17:58;19.30;99.90
63960;DHT22;50136;51.374;0.096;2022-09-09T16:28:00;19.10;99.90
63960;DHT22;50136;51.374;0.096;2022-09-09T16:38:03;17.90;99.90
63960;DHT22;50136;51.374;0.096;2022-09-09T16:48:05;17.70;99.90
63960;DHT22;50136;51.374;0.096;2022-09-09T16:58:10;17.70;99.90
63960;DHT22;50136;51.374;0.096;2022-09-09T17:08:12;17.50;99.90
63960;DHT22;50136;51.374;0.096;2022-09-09T17:18:15;17.50;99.90
63960;DHT22;50136;51.374;0.096;2022-09-09T17:28:17;17.60;99.90
63960;DHT22;50136;51.374;0.096;2022-09-09T17:38:21;17.70;99.90
63960;DHT22;50136;51.374;0.096;2022-09-09T17:48:30;17.60;99.90
63960;DHT22;50136;51.374;0.096;2022-09-09T17:58:33;17.50;99.90
63960;DHT22;50136;51.374;0.096;2022-09-09T18:08:36;17.40;99.90
63960;DHT22;50136;51.374;0.096;2022-09-09T18:18:42;17.30;99.90
63960;DHT22;50136;51.374;0.096;2022-09-09T18:28:47;17.20;99.90
63960;DHT22;50136;51.374;0.096;2022-09-09T18:38:52;17.00;99.90
63960;DHT22;50136;51.374;0.096;2022-09-09T18:48:54;16.80;99.90
63960;DHT22;50136;51.374;0.096;2022-09-09T18:59:00;16.60;99.90
63960;DHT22;50136;51.374;0.096;2022-09-09T19:09:02;16.50;99.90
63960;DHT22;50136;51.374;0.096;2022-09-09T19:19:11;16.40;99.90
63960;DHT22;50136;51.374;0.096;2022-09-09T19:29:15;16.20;99.90
63960;DHT22;50136;51.374;0.096;2022-09-09T19:39:28;16.10;99.90
63960;DHT22;50136;51.374;0.096;2022-09-09T19:49:31;16.10;99.90
63960;DHT22;50136;51.374;0.096;2022-09-09T19:59:34;16.10;99.90
63960;DHT22;50136;51.374;0.096;2022-09-09T20:09:36;16.00;99.90
63960;DHT22;50136;51.374;0.096;2022-09-09T20:19:40;16.00;99.90
63960;DHT22;50136;51.374;0.096;2022-09-09T20:29:42;15.90;99.90
63960;DHT22;50136;51.374;0.096;2022-09-09T20:39:45;15.80;99.90
63960;DHT22;50136;51.374;0.096;2022-09-09T20:49:47;15.70;99.90
63960;DHT22;50136;51.374;0.096;2022-09-09T20:59:50;15.60;99.90
63960;DHT22;50136;51.374;0.096;2022-09-09T21:09:52;15.60;99.90
63960;DHT22;50136;51.374;0.096;2022-09-09T21:19:56;15.60;99.90
63960;DHT22;50136;51.374;0.096;2022-09-09T21:29:58;15.50;99.90
63960;DHT22;50136;51.374;0.096;2022-09-09T21:40:02;15.50;99.90
63960;DHT22;50136;51.374;0.096;2022-09-09T21:50:05;15.40;99.90
63960;DHT22;50136;51.374;0.096;2022-09-09T22:00:10;15.40;99.90
63960;DHT22;50136;51.374;0.096;2022-09-09T22:10:12;15.30;99.90
63960;DHT22;50136;51.374;0.096;2022-09-09T22:20:16;15.30;99.90
63960;DHT22;50136;51.374;0.096;2022-09-09T22:30:18;15.20;99.90
63960;DHT22;50136;51.374;0.096;2022-09-09T22:40:21;15.20;99.90
63960;DHT22;50136;51.374;0.096;2022-09-09T22:50:23;15.10;99.90
63960;DHT22;50136;51.374;0.096;2022-09-09T23:00:27;15.10;99.90
63960;DHT22;50136;51.374;0.096;2022-09-09T23:10:29;15.10;99.90
63960;DHT22;50136;51.374;0.096;2022-09-09T23:20:32;15.00;99.90
63960;DHT22;50136;51.374;0.096;2022-09-09T23:30:37;15.00;99.90
63960;DHT22;50136;51.374;0.096;2022-09-09T23:40:43;14.90;99.90
63960;DHT22;50136;51.374;0.096;2022-09-09T23:50:45;14.80;99.90
